sensor_id;sensor_type;location;lat;lon;timestamp;temperature;humidity
68801;SHT31;55784;50.734;7.086;2023-05-07T00:00:57;14.98;92.21
68801;SHT31;55784;50.734;7.086;2023-05-07T00:03:24;14.96;92.33
68801;SHT31;55784;50.734;7.086;2023-05-07T00:05:51;14.98;92.33
68801;SHT31;55784;50.734;7.086;2023-05-07T00:08:18;14.99;92.24
68801;SHT31;55784;50.734;7.086;2023-05-07T00:10:43;14.96;92.28
68801;SHT31;55784;50.734;7.086;2023-05-07T00:13:09;14.94;92.34
68801;SHT31;55784;50.734;7.086;2023-05-07T00:15:34;14.94;92.38
68801;SHT31;55784;50.734;7.086;2023-05-07T00:18:00;14.95;92.44
68801;SHT31;55784;50.734;7.086;2023-05-07T00:20:25;14.98;92.41
68801;SHT31;55784;50.734;7.086;2023-05-07T00:22:50;14.98;92.41
68801;SHT31;55784;50.734;7.086;2023-05-07T00:25:16;15.02;92.38
68801;SHT31;55784;50.734;7.086;2023-05-07T00:27:41;15.04;92.05
68801;SHT31;55784;50.734;7.086;2023-05-07T00:30:07;14.99;92.09
68801;SHT31;55784;50.734;7.086;2023-05-07T00:32:32;14.95;92.21
68801;SHT31;55784;50.734;7.086;2023-05-07T00:34:58;14.91;92.38
68801;SHT31;55784;50.734;7.086;2023-05-07T00:37:23;14.95;92.38
68801;SHT31;55784;50.734;7.086;2023-05-07T00:39:49;14.95;92.32
68801;SHT31;55784;50.734;7.086;2023-05-07T00:42:14;14.98;92.30
68801;SHT31;55784;50.734;7.086;2023-05-07T00:44:41;14.95;92.34
68801;SHT31;55784;50.734;7.086;2023-05-07T00:47:07;14.96;92.32
68801;SHT31;55784;50.734;7.086;2023-05-07T00:49:44;14.99;92.33
68801;SHT31;55784;50.734;7.086;2023-05-07T00:52:13;14.98;92.28
68801;SHT31;55784;50.734;7.086;2023-05-07T00:54:39;14.98;92.29
68801;SHT31;55784;50.734;7.086;2023-05-07T00:57:05;14.99;92.32
68801;SHT31;55784;50.734;7.086;2023-05-07T00:59:32;15.02;92.21
68801;SHT31;55784;50.734;7.086;2023-05-07T01:01:57;15.04;92.08
68801;SHT31;55784;50.734;7.086;2023-05-07T01:04:23;15.01;92.09
68801;SHT31;55784;50.734;7.086;2023-05-07T01:06:49;15.01;92.06
68801;SHT31;55784;50.734;7.086;2023-05-07T01:09:15;15.02;92.10
68801;SHT31;55784;50.734;7.086;2023-05-07T01:11:40;15.01;92.08
68801;SHT31;55784;50.734;7.086;2023-05-07T01:14:07;15.02;92.09
68801;SHT31;55784;50.734;7.086;2023-05-07T01:16:33;15.02;91.91
68801;SHT31;55784;50.734;7.086;2023-05-07T01:18:58;14.96;91.95
68801;SHT31;55784;50.734;7.086;2023-05-07T01:21:26;14.98;91.99
68801;SHT31;55784;50.734;7.086;2023-05-07T01:23:55;14.92;92.22
68801;SHT31;55784;50.734;7.086;2023-05-07T01:26:21;14.94;92.19
68801;SHT31;55784;50.734;7.086;2023-05-07T01:28:47;14.95;92.03
68801;SHT31;55784;50.734;7.086;2023-05-07T01:31:13;14.95;91.99
68801;SHT31;55784;50.734;7.086;2023-05-07T01:33:40;14.95;91.92
68801;SHT31;55784;50.734;7.086;2023-05-07T01:36:07;14.89;92.12
68801;SHT31;55784;50.734;7.086;2023-05-07T01:38:34;14.87;92.26
68801;SHT31;55784;50.734;7.086;2023-05-07T01:41:00;14.85;92.44
68801;SHT31;55784;50.734;7.086;2023-05-07T01:43:25;14.87;92.49
68801;SHT31;55784;50.734;7.086;2023-05-07T01:45:51;14.85;92.48
68801;SHT31;55784;50.734;7.086;2023-05-07T01:48:17;14.87;92.41
68801;SHT31;55784;50.734;7.086;2023-05-07T01:50:44;14.88;92.41
68801;SHT31;55784;50.734;7.086;2023-05-07T01:53:09;14.88;92.43
68801;SHT31;55784;50.734;7.086;2023-05-07T01:55:34;14.84;92.43
68801;SHT31;55784;50.734;7.086;2023-05-07T01:58:02;14.87;92.50
68801;SHT31;55784;50.734;7.086;2023-05-07T02:00:27;14.87;92.44
68801;SHT31;55784;50.734;7.086;2023-05-07T02:02:54;14.84;92.47
68801;SHT31;55784;50.734;7.086;2023-05-07T02:05:19;14.84;92.48
68801;SHT31;55784;50.734;7.086;2023-05-07T02:07:44;14.82;92.44
68801;SHT31;55784;50.734;7.086;2023-05-07T02:10:10;14.81;92.48
68801;SHT31;55784;50.734;7.086;2023-05-07T02:12:35;14.81;92.48
68801;SHT31;55784;50.734;7.086;2023-05-07T02:15:00;14.78;92.52
68801;SHT31;55784;50.734;7.086;2023-05-07T02:17:26;14.77;92.59
68801;SHT31;55784;50.734;7.086;2023-05-07T02:19:51;14.75;92.63
68801;SHT31;55784;50.734;7.086;2023-05-07T02:22:16;14.75;92.70
68801;SHT31;55784;50.734;7.086;2023-05-07T02:24:41;14.71;92.73
68801;SHT31;55784;50.734;7.086;2023-05-07T02:27:07;14.72;92.80
68801;SHT31;55784;50.734;7.086;2023-05-07T02:29:33;14.71;92.91
68801;SHT31;55784;50.734;7.086;2023-05-07T02:31:59;14.68;93.00
68801;SHT31;55784;50.734;7.086;2023-05-07T02:34:24;14.68;93.00
68801;SHT31;55784;50.734;7.086;2023-05-07T02:36:50;14.68;93.05
68801;SHT31;55784;50.734;7.086;2023-05-07T02:39:16;14.67;93.05
68801;SHT31;55784;50.734;7.086;2023-05-07T02:41:42;14.64;93.03
68801;SHT31;55784;50.734;7.086;2023-05-07T02:44:07;14.63;93.09
68801;SHT31;55784;50.734;7.086;2023-05-07T02:46:32;14.63;93.10
68801;SHT31;55784;50.734;7.086;2023-05-07T02:48:58;14.56;93.16
68801;SHT31;55784;50.734;7.086;2023-05-07T02:51:25;14.57;93.23
68801;SHT31;55784;50.734;7.086;2023-05-07T02:53:51;14.54;93.23
68801;SHT31;55784;50.734;7.086;2023-05-07T02:56:16;14.54;93.29
68801;SHT31;55784;50.734;7.086;2023-05-07T02:58:41;14.50;93.33
68801;SHT31;55784;50.734;7.086;2023-05-07T03:01:08;14.54;93.37
68801;SHT31;55784;50.734;7.086;2023-05-07T03:03:34;14.56;93.34
68801;SHT31;55784;50.734;7.086;2023-05-07T03:05:59;14.56;93.32
68801;SHT31;55784;50.734;7.086;2023-05-07T03:08:25;14.54;93.26
68801;SHT31;55784;50.734;7.086;2023-05-07T03:10:50;14.53;93.28
68801;SHT31;55784;50.734;7.086;2023-05-07T03:13:16;14.50;93.34
68801;SHT31;55784;50.734;7.086;2023-05-07T03:15:41;14.47;93.34
68801;SHT31;55784;50.734;7.086;2023-05-07T03:18:06;14.48;93.37
68801;SHT31;55784;50.734;7.086;2023-05-07T03:20:32;14.44;93.54
68801;SHT31;55784;50.734;7.086;2023-05-07T03:22:57;14.43;93.66
68801;SHT31;55784;50.734;7.086;2023-05-07T03:25:23;14.43;93.64
68801;SHT31;55784;50.734;7.086;2023-05-07T03:27:48;14.44;93.64
68801;SHT31;55784;50.734;7.086;2023-05-07T03:30:14;14.50;93.60
68801;SHT31;55784;50.734;7.086;2023-05-07T03:32:39;14.48;93.57
68801;SHT31;55784;50.734;7.086;2023-05-07T03:35:05;14.45;93.57
68801;SHT31;55784;50.734;7.086;2023-05-07T03:37:30;14.45;93.59
68801;SHT31;55784;50.734;7.086;2023-05-07T03:39:56;14.40;93.68
68801;SHT31;55784;50.734;7.086;2023-05-07T03:42:21;14.34;93.71
68801;SHT31;55784;50.734;7.086;2023-05-07T03:44:47;14.31;93.77
68801;SHT31;55784;50.734;7.086;2023-05-07T03:47:12;14.31;93.74
68801;SHT31;55784;50.734;7.086;2023-05-07T03:49:38;14.33;93.78
68801;SHT31;55784;50.734;7.086;2023-05-07T03:52:04;14.31;93.79
68801;SHT31;55784;50.734;7.086;2023-05-07T03:54:30;14.33;93.70
68801;SHT31;55784;50.734;7.086;2023-05-07T03:56:55;14.36;93.61
68801;SHT31;55784;50.734;7.086;2023-05-07T03:59:21;14.38;93.59
68801;SHT31;55784;50.734;7.086;2023-05-07T04:01:47;14.44;93.48
68801;SHT31;55784;50.734;7.086;2023-05-07T04:04:13;14.44;93.42
68801;SHT31;55784;50.734;7.086;2023-05-07T04:06:39;14.47;93.35
68801;SHT31;55784;50.734;7.086;2023-05-07T04:09:04;14.51;93.35
68801;SHT31;55784;50.734;7.086;2023-05-07T04:11:30;14.53;93.27
68801;SHT31;55784;50.734;7.086;2023-05-07T04:13:55;14.59;93.18
68801;SHT31;55784;50.734;7.086;2023-05-07T04:16:20;14.60;93.19
68801;SHT31;55784;50.734;7.086;2023-05-07T04:18:46;14.63;93.14
68801;SHT31;55784;50.734;7.086;2023-05-07T04:21:18;14.65;93.20
68801;SHT31;55784;50.734;7.086;2023-05-07T04:23:44;14.65;93.29
68801;SHT31;55784;50.734;7.086;2023-05-07T04:26:09;14.68;93.20
68801;SHT31;55784;50.734;7.086;2023-05-07T04:28:35;14.72;93.25
68801;SHT31;55784;50.734;7.086;2023-05-07T04:31:01;14.74;93.26
68801;SHT31;55784;50.734;7.086;2023-05-07T04:33:26;14.78;93.29
68801;SHT31;55784;50.734;7.086;2023-05-07T04:35:52;14.78;93.32
68801;SHT31;55784;50.734;7.086;2023-05-07T04:38:17;14.82;93.23
68801;SHT31;55784;50.734;7.086;2023-05-07T04:40:44;14.77;93.31
68801;SHT31;55784;50.734;7.086;2023-05-07T04:43:09;14.80;93.29
68801;SHT31;55784;50.734;7.086;2023-05-07T04:45:35;14.82;93.19
68801;SHT31;55784;50.734;7.086;2023-05-07T04:48:01;14.84;93.30
68801;SHT31;55784;50.734;7.086;2023-05-07T04:50:26;14.87;93.24
68801;SHT31;55784;50.734;7.086;2023-05-07T04:52:51;14.89;93.15
68801;SHT31;55784;50.734;7.086;2023-05-07T04:55:17;14.91;93.19
68801;SHT31;55784;50.734;7.086;2023-05-07T04:57:42;14.91;93.11
68801;SHT31;55784;50.734;7.086;2023-05-07T05:00:08;14.94;92.99
68801;SHT31;55784;50.734;7.086;2023-05-07T05:02:34;14.98;92.87
68801;SHT31;55784;50.734;7.086;2023-05-07T05:05:00;15.01;92.77
68801;SHT31;55784;50.734;7.086;2023-05-07T05:07:27;15.08;92.61
68801;SHT31;55784;50.734;7.086;2023-05-07T05:09:52;15.14;92.46
68801;SHT31;55784;50.734;7.086;2023-05-07T05:12:17;15.24;92.30
68801;SHT31;55784;50.734;7.086;2023-05-07T05:14:43;15.39;92.10
68801;SHT31;55784;50.734;7.086;2023-05-07T05:17:08;15.55;91.75
68801;SHT31;55784;50.734;7.086;2023-05-07T05:19:33;15.69;91.02
68801;SHT31;55784;50.734;7.086;2023-05-07T05:21:58;15.93;90.41
68801;SHT31;55784;50.734;7.086;2023-05-07T05:24:26;16.10;89.77
68801;SHT31;55784;50.734;7.086;2023-05-07T05:26:53;16.18;89.10
68801;SHT31;55784;50.734;7.086;2023-05-07T05:29:18;16.28;88.71
68801;SHT31;55784;50.734;7.086;2023-05-07T05:31:43;16.41;88.45
68801;SHT31;55784;50.734;7.086;2023-05-07T05:34:09;16.49;87.90
68801;SHT31;55784;50.734;7.086;2023-05-07T05:36:34;16.47;87.59
68801;SHT31;55784;50.734;7.086;2023-05-07T05:38:59;16.48;87.20
68801;SHT31;55784;50.734;7.086;2023-05-07T05:41:24;16.44;87.23
68801;SHT31;55784;50.734;7.086;2023-05-07T05:43:50;16.51;86.84
68801;SHT31;55784;50.734;7.086;2023-05-07T05:46:15;16.57;86.94
68801;SHT31;55784;50.734;7.086;2023-05-07T05:48:40;16.55;86.30
68801;SHT31;55784;50.734;7.086;2023-05-07T05:51:06;16.57;86.36
68801;SHT31;55784;50.734;7.086;2023-05-07T05:53:31;16.55;86.40
68801;SHT31;55784;50.734;7.086;2023-05-07T05:55:56;16.54;86.30
68801;SHT31;55784;50.734;7.086;2023-05-07T05:58:22;16.35;86.66
68801;SHT31;55784;50.734;7.086;2023-05-07T06:00:47;16.40;86.04
68801;SHT31;55784;50.734;7.086;2023-05-07T06:03:13;16.40;85.88
68801;SHT31;55784;50.734;7.086;2023-05-07T06:05:39;16.58;85.36
68801;SHT31;55784;50.734;7.086;2023-05-07T06:08:04;16.73;84.90
68801;SHT31;55784;50.734;7.086;2023-05-07T06:10:30;16.93;84.28
68801;SHT31;55784;50.734;7.086;2023-05-07T06:12:55;17.29;83.59
68801;SHT31;55784;50.734;7.086;2023-05-07T06:15:21;17.55;83.06
68801;SHT31;55784;50.734;7.086;2023-05-07T06:17:46;17.66;82.10
68801;SHT31;55784;50.734;7.086;2023-05-07T06:20:11;17.71;81.72
68801;SHT31;55784;50.734;7.086;2023-05-07T06:22:37;17.74;81.01
68801;SHT31;55784;50.734;7.086;2023-05-07T06:25:02;17.90;80.96
68801;SHT31;55784;50.734;7.086;2023-05-07T06:27:27;18.01;80.18
68801;SHT31;55784;50.734;7.086;2023-05-07T06:29:53;18.12;79.73
68801;SHT31;55784;50.734;7.086;2023-05-07T06:32:18;18.22;79.56
68801;SHT31;55784;50.734;7.086;2023-05-07T06:34:43;18.26;79.04
68801;SHT31;55784;50.734;7.086;2023-05-07T06:37:09;18.29;79.13
68801;SHT31;55784;50.734;7.086;2023-05-07T06:39:34;18.45;78.90
68801;SHT31;55784;50.734;7.086;2023-05-07T06:42:00;18.53;78.03
68801;SHT31;55784;50.734;7.086;2023-05-07T06:44:26;18.56;77.79
68801;SHT31;55784;50.734;7.086;2023-05-07T06:46:52;18.48;77.71
68801;SHT31;55784;50.734;7.086;2023-05-07T06:49:18;18.55;77.94
68801;SHT31;55784;50.734;7.086;2023-05-07T06:51:43;18.66;77.62
68801;SHT31;55784;50.734;7.086;2023-05-07T06:54:08;18.80;77.48
68801;SHT31;55784;50.734;7.086;2023-05-07T06:56:34;19.00;76.99
68801;SHT31;55784;50.734;7.086;2023-05-07T06:59:00;19.06;75.99
68801;SHT31;55784;50.734;7.086;2023-05-07T07:01:26;19.19;75.51
68801;SHT31;55784;50.734;7.086;2023-05-07T07:03:51;19.24;75.40
68801;SHT31;55784;50.734;7.086;2023-05-07T07:06:17;19.35;75.50
68801;SHT31;55784;50.734;7.086;2023-05-07T07:08:42;19.41;75.28
68801;SHT31;55784;50.734;7.086;2023-05-07T07:11:08;19.55;74.43
68801;SHT31;55784;50.734;7.086;2023-05-07T07:13:33;19.72;74.33
68801;SHT31;55784;50.734;7.086;2023-05-07T07:15:59;19.82;73.62
68801;SHT31;55784;50.734;7.086;2023-05-07T07:18:25;19.98;73.11
68801;SHT31;55784;50.734;7.086;2023-05-07T07:20:50;20.04;72.71
68801;SHT31;55784;50.734;7.086;2023-05-07T07:23:16;19.96;72.44
68801;SHT31;55784;50.734;7.086;2023-05-07T07:25:41;19.99;72.70
68801;SHT31;55784;50.734;7.086;2023-05-07T07:28:06;20.05;72.41
68801;SHT31;55784;50.734;7.086;2023-05-07T07:30:32;20.04;71.76
68801;SHT31;55784;50.734;7.086;2023-05-07T07:32:57;20.12;71.70
68801;SHT31;55784;50.734;7.086;2023-05-07T07:35:28;20.18;71.72
68801;SHT31;55784;50.734;7.086;2023-05-07T07:37:53;20.18;72.03
68801;SHT31;55784;50.734;7.086;2023-05-07T07:40:19;20.37;71.60
68801;SHT31;55784;50.734;7.086;2023-05-07T07:42:44;20.44;70.89
68801;SHT31;55784;50.734;7.086;2023-05-07T07:45:11;20.53;71.06
68801;SHT31;55784;50.734;7.086;2023-05-07T07:47:37;20.62;70.60
68801;SHT31;55784;50.734;7.086;2023-05-07T07:50:02;20.70;70.23
68801;SHT31;55784;50.734;7.086;2023-05-07T07:52:28;20.86;70.24
68801;SHT31;55784;50.734;7.086;2023-05-07T07:54:56;20.90;69.84
68801;SHT31;55784;50.734;7.086;2023-05-07T07:57:22;20.72;70.29
68801;SHT31;55784;50.734;7.086;2023-05-07T07:59:47;20.90;70.02
68801;SHT31;55784;50.734;7.086;2023-05-07T08:02:12;20.98;70.33
68801;SHT31;55784;50.734;7.086;2023-05-07T08:04:37;20.97;70.66
68801;SHT31;55784;50.734;7.086;2023-05-07T08:07:03;21.14;69.69
68801;SHT31;55784;50.734;7.086;2023-05-07T08:09:37;21.21;69.70
68801;SHT31;55784;50.734;7.086;2023-05-07T08:12:04;21.38;70.45
68801;SHT31;55784;50.734;7.086;2023-05-07T08:14:29;21.62;68.76
68801;SHT31;55784;50.734;7.086;2023-05-07T08:17:11;21.62;68.16
68801;SHT31;55784;50.734;7.086;2023-05-07T08:19:36;21.82;68.17
68801;SHT31;55784;50.734;7.086;2023-05-07T08:22:02;21.78;67.70
68801;SHT31;55784;50.734;7.086;2023-05-07T08:24:49;21.88;67.23
68801;SHT31;55784;50.734;7.086;2023-05-07T08:27:14;21.92;66.49
68801;SHT31;55784;50.734;7.086;2023-05-07T08:29:40;22.03;67.68
68801;SHT31;55784;50.734;7.086;2023-05-07T08:32:05;21.96;65.71
68801;SHT31;55784;50.734;7.086;2023-05-07T08:34:31;21.93;65.71
68801;SHT31;55784;50.734;7.086;2023-05-07T08:36:56;22.12;66.62
68801;SHT31;55784;50.734;7.086;2023-05-07T08:39:21;22.23;64.59
68801;SHT31;55784;50.734;7.086;2023-05-07T08:41:48;22.44;65.46
68801;SHT31;55784;50.734;7.086;2023-05-07T08:44:22;22.36;64.31
68801;SHT31;55784;50.734;7.086;2023-05-07T08:46:48;22.24;65.25
68801;SHT31;55784;50.734;7.086;2023-05-07T08:49:20;22.10;64.75
68801;SHT31;55784;50.734;7.086;2023-05-07T08:51:45;22.13;65.49
68801;SHT31;55784;50.734;7.086;2023-05-07T08:54:11;22.03;65.15
68801;SHT31;55784;50.734;7.086;2023-05-07T08:56:37;21.92;65.55
68801;SHT31;55784;50.734;7.086;2023-05-07T08:59:02;21.63;66.14
68801;SHT31;55784;50.734;7.086;2023-05-07T09:01:28;21.71;66.60
68801;SHT31;55784;50.734;7.086;2023-05-07T09:03:54;21.98;67.09
68801;SHT31;55784;50.734;7.086;2023-05-07T09:06:20;22.13;65.36
68801;SHT31;55784;50.734;7.086;2023-05-07T09:08:50;21.95;65.83
68801;SHT31;55784;50.734;7.086;2023-05-07T09:11:26;22.05;65.52
68801;SHT31;55784;50.734;7.086;2023-05-07T09:14:03;21.93;64.73
68801;SHT31;55784;50.734;7.086;2023-05-07T09:16:35;21.83;65.11
68801;SHT31;55784;50.734;7.086;2023-05-07T09:19:00;22.28;65.73
68801;SHT31;55784;50.734;7.086;2023-05-07T09:21:26;22.50;64.24
68801;SHT31;55784;50.734;7.086;2023-05-07T09:23:53;22.64;63.14
68801;SHT31;55784;50.734;7.086;2023-05-07T09:26:23;22.71;63.38
68801;SHT31;55784;50.734;7.086;2023-05-07T09:28:49;22.39;63.09
68801;SHT31;55784;50.734;7.086;2023-05-07T09:31:14;22.40;63.84
68801;SHT31;55784;50.734;7.086;2023-05-07T09:33:40;22.83;63.85
68801;SHT31;55784;50.734;7.086;2023-05-07T09:36:07;22.95;62.76
68801;SHT31;55784;50.734;7.086;2023-05-07T09:38:33;23.07;63.06
68801;SHT31;55784;50.734;7.086;2023-05-07T09:43:32;23.90;61.86
68801;SHT31;55784;50.734;7.086;2023-05-07T09:45:59;24.13;60.15
68801;SHT31;55784;50.734;7.086;2023-05-07T09:48:25;23.52;61.08
68801;SHT31;55784;50.734;7.086;2023-05-07T09:50:55;24.02;60.71
68801;SHT31;55784;50.734;7.086;2023-05-07T09:53:23;24.07;59.75
68801;SHT31;55784;50.734;7.086;2023-05-07T09:55:50;24.23;58.96
68801;SHT31;55784;50.734;7.086;2023-05-07T09:58:18;24.18;59.30
68801;SHT31;55784;50.734;7.086;2023-05-07T10:00:44;23.92;59.41
68801;SHT31;55784;50.734;7.086;2023-05-07T10:03:11;23.42;60.39
68801;SHT31;55784;50.734;7.086;2023-05-07T10:05:37;23.58;60.80
68801;SHT31;55784;50.734;7.086;2023-05-07T10:08:03;23.53;61.64
68801;SHT31;55784;50.734;7.086;2023-05-07T10:10:29;23.63;60.22
68801;SHT31;55784;50.734;7.086;2023-05-07T10:12:58;23.42;61.91
68801;SHT31;55784;50.734;7.086;2023-05-07T10:15:24;23.02;61.15
68801;SHT31;55784;50.734;7.086;2023-05-07T10:17:51;23.07;61.89
68801;SHT31;55784;50.734;7.086;2023-05-07T10:20:18;23.19;61.70
68801;SHT31;55784;50.734;7.086;2023-05-07T10:22:47;23.48;60.62
68801;SHT31;55784;50.734;7.086;2023-05-07T10:25:18;23.39;59.92
68801;SHT31;55784;50.734;7.086;2023-05-07T10:27:46;23.45;60.64
68801;SHT31;55784;50.734;7.086;2023-05-07T10:32:56;23.21;59.18
68801;SHT31;55784;50.734;7.086;2023-05-07T10:35:32;23.38;58.93
68801;SHT31;55784;50.734;7.086;2023-05-07T10:38:01;23.56;57.68
68801;SHT31;55784;50.734;7.086;2023-05-07T10:40:27;23.87;56.57
68801;SHT31;55784;50.734;7.086;2023-05-07T10:43:03;24.13;56.04
68801;SHT31;55784;50.734;7.086;2023-05-07T10:45:32;24.48;54.73
68801;SHT31;55784;50.734;7.086;2023-05-07T10:48:14;24.99;53.53
68801;SHT31;55784;50.734;7.086;2023-05-07T10:50:41;25.12;52.41
68801;SHT31;55784;50.734;7.086;2023-05-07T10:55:46;24.92;53.86
68801;SHT31;55784;50.734;7.086;2023-05-07T10:58:30;23.66;58.81
68801;SHT31;55784;50.734;7.086;2023-05-07T11:00:57;23.92;59.19
68801;SHT31;55784;50.734;7.086;2023-05-07T11:03:23;24.68;55.86
68801;SHT31;55784;50.734;7.086;2023-05-07T11:06:11;25.04;54.76
68801;SHT31;55784;50.734;7.086;2023-05-07T11:11:18;24.68;56.31
68801;SHT31;55784;50.734;7.086;2023-05-07T11:13:46;23.90;58.29
68801;SHT31;55784;50.734;7.086;2023-05-07T11:16:25;24.33;56.65
68801;SHT31;55784;50.734;7.086;2023-05-07T11:18:56;24.78;56.62
68801;SHT31;55784;50.734;7.086;2023-05-07T11:21:47;24.63;57.62
68801;SHT31;55784;50.734;7.086;2023-05-07T11:24:14;24.26;57.92
68801;SHT31;55784;50.734;7.086;2023-05-07T11:26:49;24.36;57.04
68801;SHT31;55784;50.734;7.086;2023-05-07T11:29:20;24.64;55.71
68801;SHT31;55784;50.734;7.086;2023-05-07T11:31:53;24.94;54.49
68801;SHT31;55784;50.734;7.086;2023-05-07T11:34:23;24.57;56.30
68801;SHT31;55784;50.734;7.086;2023-05-07T11:36:49;24.30;56.36
68801;SHT31;55784;50.734;7.086;2023-05-07T11:39:25;24.43;56.78
68801;SHT31;55784;50.734;7.086;2023-05-07T11:41:50;24.03;56.84
68801;SHT31;55784;50.734;7.086;2023-05-07T11:44:16;24.06;57.79
68801;SHT31;55784;50.734;7.086;2023-05-07T11:46:43;23.90;56.01
68801;SHT31;55784;50.734;7.086;2023-05-07T11:49:09;23.73;56.16
68801;SHT31;55784;50.734;7.086;2023-05-07T11:51:35;23.79;56.35
68801;SHT31;55784;50.734;7.086;2023-05-07T11:54:03;23.62;57.11
68801;SHT31;55784;50.734;7.086;2023-05-07T11:56:29;23.66;55.30
68801;SHT31;55784;50.734;7.086;2023-05-07T11:59:02;23.73;56.32
68801;SHT31;55784;50.734;7.086;2023-05-07T12:01:27;23.67;55.19
68801;SHT31;55784;50.734;7.086;2023-05-07T12:03:52;24.07;54.53
68801;SHT31;55784;50.734;7.086;2023-05-07T12:06:18;23.69;55.19
68801;SHT31;55784;50.734;7.086;2023-05-07T12:08:44;23.51;56.16
68801;SHT31;55784;50.734;7.086;2023-05-07T12:11:16;23.34;57.00
68801;SHT31;55784;50.734;7.086;2023-05-07T12:13:43;23.28;57.96
68801;SHT31;55784;50.734;7.086;2023-05-07T12:16:09;23.34;57.24
68801;SHT31;55784;50.734;7.086;2023-05-07T12:18:35;23.31;57.28
68801;SHT31;55784;50.734;7.086;2023-05-07T12:21:02;23.22;57.74
68801;SHT31;55784;50.734;7.086;2023-05-07T12:23:28;23.24;57.43
68801;SHT31;55784;50.734;7.086;2023-05-07T12:25:54;23.29;57.40
68801;SHT31;55784;50.734;7.086;2023-05-07T12:28:19;23.22;57.72
68801;SHT31;55784;50.734;7.086;2023-05-07T12:30:46;23.05;58.28
68801;SHT31;55784;50.734;7.086;2023-05-07T12:33:12;23.00;57.64
68801;SHT31;55784;50.734;7.086;2023-05-07T12:35:41;22.77;58.37
68801;SHT31;55784;50.734;7.086;2023-05-07T12:38:11;22.84;58.70
68801;SHT31;55784;50.734;7.086;2023-05-07T12:40:41;22.95;58.12
68801;SHT31;55784;50.734;7.086;2023-05-07T12:43:08;23.00;58.53
68801;SHT31;55784;50.734;7.086;2023-05-07T12:45:41;22.97;58.11
68801;SHT31;55784;50.734;7.086;2023-05-07T12:48:06;22.92;57.42
68801;SHT31;55784;50.734;7.086;2023-05-07T12:50:34;22.90;58.16
68801;SHT31;55784;50.734;7.086;2023-05-07T12:53:00;22.83;58.45
68801;SHT31;55784;50.734;7.086;2023-05-07T12:55:26;22.94;57.63
68801;SHT31;55784;50.734;7.086;2023-05-07T12:57:52;22.92;57.64
68801;SHT31;55784;50.734;7.086;2023-05-07T13:00:32;22.92;58.06
68801;SHT31;55784;50.734;7.086;2023-05-07T13:02:58;22.60;58.64
68801;SHT31;55784;50.734;7.086;2023-05-07T13:05:23;22.51;59.69
68801;SHT31;55784;50.734;7.086;2023-05-07T13:07:53;22.41;67.88
68801;SHT31;55784;50.734;7.086;2023-05-07T13:10:18;21.69;67.46
68801;SHT31;55784;50.734;7.086;2023-05-07T13:12:44;21.20;71.45
68801;SHT31;55784;50.734;7.086;2023-05-07T13:15:10;20.86;70.30
68801;SHT31;55784;50.734;7.086;2023-05-07T13:17:35;20.60;70.49
68801;SHT31;55784;50.734;7.086;2023-05-07T13:20:01;20.67;70.00
68801;SHT31;55784;50.734;7.086;2023-05-07T13:22:26;20.80;68.75
68801;SHT31;55784;50.734;7.086;2023-05-07T13:24:51;21.07;69.04
68801;SHT31;55784;50.734;7.086;2023-05-07T13:27:16;21.21;67.96
68801;SHT31;55784;50.734;7.086;2023-05-07T13:29:42;21.32;67.92
68801;SHT31;55784;50.734;7.086;2023-05-07T13:32:11;21.61;68.98
68801;SHT31;55784;50.734;7.086;2023-05-07T13:34:39;21.92;68.61
68801;SHT31;55784;50.734;7.086;2023-05-07T13:37:04;21.85;66.94
68801;SHT31;55784;50.734;7.086;2023-05-07T13:39:30;21.66;65.42
68801;SHT31;55784;50.734;7.086;2023-05-07T13:41:55;21.74;65.07
68801;SHT31;55784;50.734;7.086;2023-05-07T13:44:20;21.83;66.16
68801;SHT31;55784;50.734;7.086;2023-05-07T13:46:46;22.02;66.94
68801;SHT31;55784;50.734;7.086;2023-05-07T13:49:13;22.13;66.98
68801;SHT31;55784;50.734;7.086;2023-05-07T13:51:39;22.16;66.42
68801;SHT31;55784;50.734;7.086;2023-05-07T13:54:04;22.08;63.45
68801;SHT31;55784;50.734;7.086;2023-05-07T13:56:30;22.10;64.19
68801;SHT31;55784;50.734;7.086;2023-05-07T13:58:57;21.92;64.37
68801;SHT31;55784;50.734;7.086;2023-05-07T14:01:22;21.90;65.41
68801;SHT31;55784;50.734;7.086;2023-05-07T14:03:50;22.17;66.10
68801;SHT31;55784;50.734;7.086;2023-05-07T14:06:15;21.96;67.29
68801;SHT31;55784;50.734;7.086;2023-05-07T14:08:40;21.86;68.24
68801;SHT31;55784;50.734;7.086;2023-05-07T14:11:06;21.83;67.19
68801;SHT31;55784;50.734;7.086;2023-05-07T14:13:31;21.69;67.22
68801;SHT31;55784;50.734;7.086;2023-05-07T14:15:57;21.58;67.42
68801;SHT31;55784;50.734;7.086;2023-05-07T14:18:23;21.77;67.46
68801;SHT31;55784;50.734;7.086;2023-05-07T14:20:48;21.75;66.96
68801;SHT31;55784;50.734;7.086;2023-05-07T14:23:14;21.58;67.02
68801;SHT31;55784;50.734;7.086;2023-05-07T14:25:40;21.55;67.40
68801;SHT31;55784;50.734;7.086;2023-05-07T14:28:06;21.69;66.40
68801;SHT31;55784;50.734;7.086;2023-05-07T14:30:31;21.44;67.09
68801;SHT31;55784;50.734;7.086;2023-05-07T14:32:57;21.38;67.68
68801;SHT31;55784;50.734;7.086;2023-05-07T14:35:22;21.55;67.08
68801;SHT31;55784;50.734;7.086;2023-05-07T14:37:48;21.31;67.86
68801;SHT31;55784;50.734;7.086;2023-05-07T14:40:14;21.08;69.18
68801;SHT31;55784;50.734;7.086;2023-05-07T14:42:40;21.18;68.89
68801;SHT31;55784;50.734;7.086;2023-05-07T14:45:06;21.11;69.22
68801;SHT31;55784;50.734;7.086;2023-05-07T14:47:31;21.15;69.61
68801;SHT31;55784;50.734;7.086;2023-05-07T14:49:57;21.23;69.39
68801;SHT31;55784;50.734;7.086;2023-05-07T14:52:23;21.28;68.93
68801;SHT31;55784;50.734;7.086;2023-05-07T14:54:48;21.34;68.37
68801;SHT31;55784;50.734;7.086;2023-05-07T14:57:14;21.45;67.96
68801;SHT31;55784;50.734;7.086;2023-05-07T14:59:41;21.59;67.93
68801;SHT31;55784;50.734;7.086;2023-05-07T15:02:07;21.68;67.82
68801;SHT31;55784;50.734;7.086;2023-05-07T15:04:34;21.77;69.94
68801;SHT31;55784;50.734;7.086;2023-05-07T15:07:00;21.69;70.67
68801;SHT31;55784;50.734;7.086;2023-05-07T15:09:25;21.68;71.56
68801;SHT31;55784;50.734;7.086;2023-05-07T15:11:51;21.61;70.94
68801;SHT31;55784;50.734;7.086;2023-05-07T15:14:16;21.55;70.36
68801;SHT31;55784;50.734;7.086;2023-05-07T15:16:41;21.38;70.01
68801;SHT31;55784;50.734;7.086;2023-05-07T15:19:07;21.32;70.42
68801;SHT31;55784;50.734;7.086;2023-05-07T15:21:32;21.21;71.43
68801;SHT31;55784;50.734;7.086;2023-05-07T15:24:00;21.03;72.49
68801;SHT31;55784;50.734;7.086;2023-05-07T15:26:26;20.80;70.54
68801;SHT31;55784;50.734;7.086;2023-05-07T15:28:51;20.72;70.88
68801;SHT31;55784;50.734;7.086;2023-05-07T15:31:17;20.90;72.18
68801;SHT31;55784;50.734;7.086;2023-05-07T15:33:42;21.11;74.15
68801;SHT31;55784;50.734;7.086;2023-05-07T15:36:08;21.24;74.72